createdAt,value
2023-03-04T00:01:18.606Z,38.10
2023-03-04T00:03:46.538Z,37.73
2023-03-04T00:06:14.443Z,36.43
2023-03-04T00:08:42.354Z,35.00
2023-03-04T00:11:10.297Z,38.27
2023-03-04T00:13:38.224Z,35.33
2023-03-04T00:16:08.072Z,37.50
2023-03-04T00:18:36.014Z,39.73
2023-03-04T00:21:03.989Z,41.93
2023-03-04T00:23:32.112Z,33.63
2023-03-04T00:25:59.989Z,37.90
2023-03-04T00:28:28.176Z,36.70
2023-03-04T00:30:56.149Z,37.90
2023-03-04T00:33:25.439Z,33.90
2023-03-04T00:35:53.621Z,35.73
2023-03-04T00:38:21.578Z,37.50
2023-03-04T00:40:49.441Z,86.30
2023-03-04T00:43:17.390Z,130.43
2023-03-04T00:45:45.483Z,63.97
2023-03-04T00:48:13.468Z,44.47
2023-03-04T00:50:42.798Z,42.37
2023-03-04T00:53:11.176Z,37.03
2023-03-04T00:55:39.128Z,41.13
2023-03-04T00:58:07.163Z,34.77
2023-03-04T01:00:35.139Z,36.43
2023-03-04T01:03:03.110Z,38.70
2023-03-04T01:05:32.248Z,37.93
2023-03-04T01:08:01.552Z,34.53
2023-03-04T01:10:29.523Z,36.87
2023-03-04T01:12:57.482Z,34.43
2023-03-04T01:15:25.609Z,37.03
2023-03-04T01:17:53.559Z,41.33
2023-03-04T01:20:21.560Z,35.73
2023-03-04T01:22:49.457Z,37.30
2023-03-04T01:25:18.806Z,35.80
2023-03-04T01:27:46.670Z,35.93
2023-03-04T01:30:15.008Z,37.47
2023-03-04T01:32:42.920Z,36.17
2023-03-04T01:35:11.208Z,37.20
2023-03-04T01:37:39.108Z,37.57
2023-03-04T01:40:07.558Z,39.23
2023-03-04T01:42:37.444Z,36.67
2023-03-04T01:45:06.365Z,36.50
2023-03-04T01:47:35.267Z,39.03
2023-03-04T01:50:04.743Z,38.43
2023-03-04T01:52:32.688Z,35.43
2023-03-04T01:55:00.656Z,39.70
2023-03-04T01:57:28.600Z,33.80
2023-03-04T02:00:17.650Z,37.37
2023-03-04T02:02:45.984Z,36.50
2023-03-04T02:05:14.113Z,37.70
2023-03-04T02:07:42.274Z,37.43
2023-03-04T02:10:11.099Z,33.87
2023-03-04T02:12:39.330Z,37.17
2023-03-04T02:15:07.969Z,39.07
2023-03-04T02:17:37.295Z,35.50
2023-03-04T02:20:10.918Z,37.83
2023-03-04T02:22:40.566Z,36.80
2023-03-04T02:25:09.732Z,39.80
2023-03-04T02:27:39.047Z,43.27
2023-03-04T02:30:07.576Z,34.43
2023-03-04T02:32:35.510Z,39.23
2023-03-04T02:35:03.572Z,38.50
2023-03-04T02:37:31.560Z,37.27
2023-03-04T02:39:59.751Z,37.43
2023-03-04T02:42:27.658Z,35.80
2023-03-04T02:45:02.395Z,39.30
2023-03-04T02:47:30.301Z,36.90
2023-03-04T02:49:58.226Z,40.67
2023-03-04T02:52:26.901Z,41.17
2023-03-04T02:54:54.764Z,39.50
2023-03-04T02:57:22.665Z,35.13
2023-03-04T02:59:50.568Z,42.47
2023-03-04T03:02:19.955Z,38.00
2023-03-04T03:04:47.930Z,44.53
2023-03-04T03:07:15.870Z,41.77
2023-03-04T03:09:43.791Z,40.23
2023-03-04T03:12:11.778Z,39.33
2023-03-04T03:14:39.723Z,40.53
2023-03-04T03:17:07.654Z,40.07
2023-03-04T03:19:37.112Z,37.53
2023-03-04T03:22:05.306Z,40.20
2023-03-04T03:24:33.237Z,39.87
2023-03-04T03:27:01.261Z,36.07
2023-03-04T03:29:29.180Z,37.80
2023-03-04T03:31:57.260Z,35.27
2023-03-04T03:34:25.284Z,41.03
2023-03-04T03:36:54.881Z,36.00
2023-03-04T03:39:22.804Z,38.87
2023-03-04T03:41:50.676Z,37.80
2023-03-04T03:44:18.619Z,42.43
2023-03-04T03:46:47.036Z,39.57
2023-03-04T03:49:14.910Z,37.07
2023-03-04T03:51:42.811Z,36.53
2023-03-04T03:54:12.144Z,31.73
2023-03-04T03:56:40.074Z,40.10
2023-03-04T03:59:08.104Z,35.67
2023-03-04T04:01:36.113Z,36.37
2023-03-04T04:04:04.158Z,35.00
2023-03-04T04:06:32.079Z,36.33
2023-03-04T04:08:59.990Z,34.30
2023-03-04T04:11:29.375Z,37.40
2023-03-04T04:13:57.356Z,32.60
2023-03-04T04:16:25.334Z,37.33
2023-03-04T04:18:53.258Z,33.77
2023-03-04T04:21:21.220Z,32.63
2023-03-04T04:23:49.171Z,40.03
2023-03-04T04:26:17.038Z,34.10
2023-03-04T04:28:46.367Z,35.63
2023-03-04T04:31:14.442Z,36.60
2023-03-04T04:33:42.350Z,38.00
2023-03-04T04:36:11.378Z,39.00
2023-03-04T04:38:39.286Z,36.77
2023-03-04T04:41:07.672Z,36.17
2023-03-04T04:43:35.610Z,35.57
2023-03-04T04:46:05.358Z,38.10
2023-03-04T04:48:33.348Z,37.97
2023-03-04T04:51:01.229Z,38.17
2023-03-04T04:53:29.208Z,36.03
2023-03-04T04:55:57.127Z,33.70
2023-03-04T04:58:25.109Z,37.23
2023-03-04T05:00:53.258Z,39.03
2023-03-04T05:03:23.629Z,37.17
2023-03-04T05:05:51.654Z,39.30
2023-03-04T05:08:19.572Z,36.00
2023-03-04T05:10:47.541Z,38.23
2023-03-04T05:13:15.495Z,36.20
2023-03-04T05:15:43.440Z,35.57
2023-03-04T05:18:11.445Z,35.20
2023-03-04T05:20:40.807Z,38.27
2023-03-04T05:23:08.708Z,33.43
2023-03-04T05:25:36.815Z,38.70
2023-03-04T05:28:05.168Z,33.47
2023-03-04T05:30:33.039Z,36.60
2023-03-04T05:33:00.948Z,33.67
2023-03-04T05:35:29.209Z,39.50
2023-03-04T05:37:58.545Z,32.77
2023-03-04T05:40:26.480Z,32.40
2023-03-04T05:42:54.386Z,33.03
2023-03-04T05:45:22.255Z,35.63
2023-03-04T05:47:50.321Z,37.03
2023-03-04T05:50:18.361Z,42.40
2023-03-04T05:52:46.382Z,39.93
2023-03-04T05:55:16.117Z,39.77
2023-03-04T05:57:44.218Z,34.67
2023-03-04T06:00:13.386Z,31.70
2023-03-04T06:02:41.929Z,36.97
2023-03-04T06:05:10.642Z,34.33
2023-03-04T06:07:38.552Z,32.63
2023-03-04T06:10:07.054Z,42.17
2023-03-04T06:12:36.597Z,35.80
2023-03-04T06:15:06.219Z,34.37
2023-03-04T06:17:34.490Z,34.17
2023-03-04T06:20:02.441Z,33.87
2023-03-04T06:22:30.353Z,36.10
2023-03-04T06:24:58.298Z,36.77
2023-03-04T06:27:29.312Z,36.33
2023-03-04T06:29:58.891Z,37.43
2023-03-04T06:32:26.880Z,32.27
2023-03-04T06:34:54.805Z,38.53
2023-03-04T06:37:22.854Z,38.17
2023-03-04T06:39:50.759Z,38.80
2023-03-04T06:42:18.738Z,31.83
2023-03-04T06:44:46.618Z,39.37
2023-03-04T06:47:16.202Z,31.93
2023-03-04T06:49:44.101Z,34.50
2023-03-04T06:52:13.056Z,35.60
2023-03-04T06:54:41.051Z,34.97
2023-03-04T06:57:08.957Z,33.77
2023-03-04T06:59:36.882Z,41.17
2023-03-04T07:02:04.891Z,36.20
2023-03-04T07:04:34.243Z,38.00
2023-03-04T07:07:02.161Z,37.47
2023-03-04T07:09:30.109Z,37.70
2023-03-04T07:11:58.081Z,36.03
2023-03-04T07:14:26.059Z,37.60
2023-03-04T07:16:53.943Z,34.40
2023-03-04T07:19:21.971Z,35.43
2023-03-04T07:21:51.274Z,37.40
2023-03-04T07:24:19.351Z,39.67
2023-03-04T07:26:47.348Z,37.60
2023-03-04T07:29:15.233Z,36.57
2023-03-04T07:31:43.439Z,34.80
2023-03-04T07:34:13.508Z,34.90
2023-03-04T07:36:41.434Z,36.57
2023-03-04T07:39:13.163Z,38.10
2023-03-04T07:41:41.488Z,41.97
2023-03-04T07:44:12.164Z,38.53
2023-03-04T07:46:41.107Z,35.73
2023-03-04T07:49:09.066Z,36.70
2023-03-04T07:51:37.333Z,37.70
2023-03-04T07:54:05.510Z,39.23
2023-03-04T07:56:35.564Z,39.87
2023-03-04T07:59:04.339Z,40.67
2023-03-04T08:01:33.221Z,37.00
2023-03-04T08:04:01.775Z,39.40
2023-03-04T08:06:30.095Z,47.50
2023-03-04T08:08:59.085Z,38.33
2023-03-04T08:11:27.819Z,39.90
2023-03-04T08:13:57.323Z,43.80
2023-03-04T08:16:25.899Z,40.23
2023-03-04T08:18:56.601Z,42.03
2023-03-04T08:21:25.545Z,35.93
2023-03-04T08:23:53.954Z,39.97
2023-03-04T08:26:23.322Z,37.70
2023-03-04T08:28:51.279Z,40.07
2023-03-04T08:31:20.938Z,33.47
2023-03-04T08:33:48.927Z,45.87
2023-03-04T08:36:17.249Z,39.70
2023-03-04T08:38:45.323Z,39.40
2023-03-04T08:41:14.110Z,41.00
2023-03-04T08:43:41.992Z,41.57
2023-03-04T08:46:09.984Z,42.30
2023-03-04T08:48:39.515Z,41.37
2023-03-04T08:51:11.057Z,39.87
2023-03-04T08:53:39.592Z,44.70
2023-03-04T08:56:07.885Z,42.03
2023-03-04T08:58:35.825Z,41.83
2023-03-04T09:01:04.270Z,40.60
2023-03-04T09:03:32.207Z,46.37
2023-03-04T09:06:03.135Z,42.67
2023-03-04T09:08:32.050Z,41.27
2023-03-04T09:11:00.016Z,42.70
2023-03-04T09:13:29.948Z,40.07
2023-03-04T09:15:58.062Z,42.77
2023-03-04T09:18:26.726Z,43.00
2023-03-04T09:20:55.071Z,42.43
2023-03-04T09:23:24.405Z,38.60
2023-03-04T09:25:52.329Z,43.97
2023-03-04T09:28:20.634Z,42.63
2023-03-04T09:30:48.679Z,43.10
2023-03-04T09:33:16.655Z,39.83
2023-03-04T09:35:44.793Z,41.90
2023-03-04T09:38:12.711Z,49.20
2023-03-04T09:40:43.192Z,39.80
2023-03-04T09:43:14.611Z,48.90
2023-03-04T09:45:44.349Z,47.83
2023-03-04T09:48:15.008Z,45.20
2023-03-04T09:50:44.209Z,49.67
2023-03-04T09:53:17.772Z,41.93
2023-03-04T09:55:49.838Z,42.77
2023-03-04T09:58:25.663Z,47.80
2023-03-04T10:00:56.553Z,48.73
2023-03-04T10:03:26.464Z,45.13
2023-03-04T10:05:56.283Z,41.40
2023-03-04T10:08:32.462Z,51.63
2023-03-04T10:11:03.034Z,45.17
2023-03-04T10:13:37.071Z,49.00
2023-03-04T10:16:06.835Z,46.97
2023-03-04T10:18:37.748Z,42.67
2023-03-04T10:21:09.028Z,47.00
2023-03-04T10:23:37.782Z,47.57
2023-03-04T10:26:13.673Z,46.10
2023-03-04T10:28:41.860Z,46.53
2023-03-04T10:31:13.192Z,43.17
2023-03-04T10:33:41.950Z,44.37
2023-03-04T10:36:18.177Z,50.37
2023-03-04T10:38:46.298Z,49.83
2023-03-04T10:41:16.873Z,46.17
2023-03-04T10:43:46.855Z,44.73
2023-03-04T10:46:14.841Z,44.23
2023-03-04T10:48:43.685Z,48.43
2023-03-04T10:51:14.654Z,48.37
2023-03-04T10:53:43.401Z,45.30
2023-03-04T10:56:26.158Z,53.17
2023-03-04T10:59:19.193Z,49.57
2023-03-04T11:01:47.406Z,53.50
2023-03-04T11:04:18.539Z,48.87
2023-03-04T11:06:47.589Z,42.97
2023-03-04T11:09:23.224Z,46.90
2023-03-04T11:11:54.215Z,43.80
2023-03-04T11:14:26.472Z,49.37
2023-03-04T11:16:56.746Z,46.87
2023-03-04T11:19:26.198Z,43.37
2023-03-04T11:21:54.715Z,50.03
2023-03-04T11:24:29.070Z,47.50
2023-03-04T11:26:59.182Z,47.67
2023-03-04T11:29:32.894Z,45.87
2023-03-04T11:32:05.222Z,48.00
2023-03-04T11:34:38.339Z,45.30
2023-03-04T11:37:10.090Z,47.17
2023-03-04T11:39:38.937Z,44.73
2023-03-04T11:42:11.805Z,49.17
2023-03-04T11:44:41.718Z,46.10
2023-03-04T11:47:17.145Z,45.10
2023-03-04T11:49:55.429Z,44.10
2023-03-04T11:52:29.475Z,45.03
2023-03-04T11:55:07.477Z,49.70
2023-03-04T11:57:39.396Z,46.03
2023-03-04T12:00:31.435Z,44.60
2023-03-04T12:03:11.019Z,44.70
2023-03-04T12:05:44.997Z,47.43
2023-03-04T12:08:25.087Z,46.57
2023-03-04T12:10:57.187Z,43.17
2023-03-04T12:13:39.925Z,49.20
2023-03-04T12:16:16.132Z,50.93
2023-03-04T12:18:50.716Z,40.73
2023-03-04T12:21:26.690Z,44.43
2023-03-04T12:24:12.996Z,41.20
2023-03-04T12:26:42.994Z,39.47
2023-03-04T12:29:14.769Z,40.30
2023-03-04T12:31:44.377Z,39.03
2023-03-04T12:34:30.401Z,39.67
2023-03-04T12:37:05.342Z,39.17
2023-03-04T12:39:34.284Z,34.30
2023-03-04T12:42:08.600Z,38.10
2023-03-04T12:44:39.668Z,41.10
2023-03-04T12:47:14.986Z,36.53
2023-03-04T12:49:57.055Z,37.53
2023-03-04T12:52:31.134Z,36.60
2023-03-04T12:55:01.634Z,37.73
2023-03-04T12:57:31.940Z,36.87
2023-03-04T13:00:04.678Z,35.40
2023-03-04T13:02:49.312Z,33.60
2023-03-04T13:05:29.901Z,32.83
2023-03-04T13:08:06.402Z,34.80
2023-03-04T13:10:34.301Z,37.60
2023-03-04T13:13:02.781Z,34.47
2023-03-04T13:15:39.780Z,34.97
2023-03-04T13:18:22.471Z,33.90
2023-03-04T13:21:06.261Z,32.70
2023-03-04T13:23:34.901Z,32.53
2023-03-04T13:26:22.635Z,34.77
2023-03-04T13:28:54.669Z,30.70
2023-03-04T13:31:26.724Z,38.30
2023-03-04T13:33:56.440Z,31.97
2023-03-04T13:36:30.552Z,36.47
2023-03-04T13:39:00.582Z,33.40
2023-03-04T13:41:32.465Z,31.57
2023-03-04T13:44:00.746Z,32.53
2023-03-04T13:46:41.027Z,36.43
2023-03-04T13:49:09.972Z,25.97
2023-03-04T13:51:41.662Z,29.10
2023-03-04T13:54:14.271Z,27.67
2023-03-04T13:56:42.940Z,28.10
2023-03-04T13:59:22.195Z,26.67
2023-03-04T14:01:52.681Z,27.37
2023-03-04T14:04:21.357Z,25.97
2023-03-04T14:06:51.662Z,30.60
2023-03-04T14:09:22.022Z,22.63
2023-03-04T14:11:52.377Z,27.83
2023-03-04T14:14:21.995Z,22.33
2023-03-04T14:16:51.630Z,23.70
2023-03-04T14:19:23.183Z,23.83
2023-03-04T14:21:52.539Z,22.47
2023-03-04T14:24:21.119Z,27.90
2023-03-04T14:26:49.189Z,23.27
2023-03-04T14:29:24.564Z,32.30
2023-03-04T14:31:52.981Z,25.23
2023-03-04T14:34:25.499Z,23.83
2023-03-04T14:36:54.803Z,25.47
2023-03-04T14:39:25.067Z,25.60
2023-03-04T14:41:53.931Z,25.37
2023-03-04T14:44:26.847Z,20.83
2023-03-04T14:47:07.063Z,23.80
2023-03-04T14:49:36.668Z,21.63
2023-03-04T14:52:06.395Z,22.10
2023-03-04T14:54:35.822Z,18.97
2023-03-04T14:57:21.657Z,18.97
2023-03-04T14:59:49.648Z,23.33
2023-03-04T15:02:22.392Z,26.37
2023-03-04T15:04:51.336Z,23.43
2023-03-04T15:07:22.978Z,24.40
2023-03-04T15:09:51.763Z,22.03
2023-03-04T15:12:25.514Z,22.67
2023-03-04T15:14:54.118Z,19.53
2023-03-04T15:17:26.372Z,23.93
2023-03-04T15:20:00.995Z,23.10
2023-03-04T15:22:30.314Z,21.87
2023-03-04T15:24:58.240Z,24.17
2023-03-04T15:27:28.609Z,21.13
2023-03-04T15:29:59.439Z,22.63
2023-03-04T15:32:27.528Z,20.67
2023-03-04T15:34:55.538Z,17.27
2023-03-04T15:37:24.782Z,20.93
2023-03-04T15:39:54.462Z,18.00
2023-03-04T15:42:22.367Z,21.70
2023-03-04T15:44:50.357Z,19.20
2023-03-04T15:47:18.336Z,20.83
2023-03-04T15:49:47.650Z,23.73
2023-03-04T15:52:18.139Z,21.80
2023-03-04T15:54:47.428Z,19.73
2023-03-04T15:57:21.561Z,23.67
2023-03-04T15:59:49.457Z,20.97
2023-03-04T16:02:21.040Z,18.20
2023-03-04T16:04:48.968Z,21.70
2023-03-04T16:07:18.694Z,21.00
2023-03-04T16:09:47.349Z,20.30
2023-03-04T16:12:15.312Z,23.77
2023-03-04T16:14:47.013Z,15.50
2023-03-04T16:17:16.110Z,15.97
2023-03-04T16:19:44.065Z,21.00
2023-03-04T16:22:14.090Z,21.50
2023-03-04T16:24:42.273Z,21.30
2023-03-04T16:27:12.044Z,18.67
2023-03-04T16:29:39.966Z,19.30
2023-03-04T16:32:10.114Z,22.43
2023-03-04T16:34:38.273Z,22.57
2023-03-04T16:37:07.899Z,20.23
2023-03-04T16:39:35.885Z,16.53
2023-03-04T16:42:03.888Z,20.90
2023-03-04T16:44:31.785Z,22.93
2023-03-04T16:46:59.758Z,24.50
2023-03-04T16:49:31.539Z,23.50
2023-03-04T16:51:59.421Z,28.67
2023-03-04T16:54:30.113Z,20.40
2023-03-04T16:56:57.997Z,25.03
2023-03-04T16:59:26.591Z,25.20
2023-03-04T17:01:55.267Z,21.40
2023-03-04T17:04:23.415Z,26.73
2023-03-04T17:06:52.840Z,21.23
2023-03-04T17:09:20.727Z,21.97
2023-03-04T17:11:48.754Z,20.73
2023-03-04T17:14:16.626Z,19.60
2023-03-04T17:16:44.604Z,22.37
2023-03-04T17:19:12.659Z,20.60
2023-03-04T17:21:40.625Z,27.77
2023-03-04T17:24:11.324Z,22.03
2023-03-04T17:26:40.027Z,21.57
2023-03-04T17:29:07.901Z,21.43
2023-03-04T17:31:36.904Z,22.90
2023-03-04T17:34:04.837Z,28.93
2023-03-04T17:36:32.759Z,19.33
2023-03-04T17:39:01.088Z,20.60
2023-03-04T17:41:30.469Z,20.63
2023-03-04T17:43:58.414Z,21.23
2023-03-04T17:46:27.085Z,20.77
2023-03-04T17:48:56.286Z,26.93
2023-03-04T17:51:29.994Z,23.03
2023-03-04T17:53:57.866Z,24.57
2023-03-04T17:56:30.164Z,21.17
2023-03-04T17:59:00.249Z,18.93
2023-03-04T18:01:28.550Z,24.00
2023-03-04T18:03:56.745Z,22.43
2023-03-04T18:06:25.387Z,28.03
2023-03-04T18:08:53.629Z,18.57
2023-03-04T18:11:21.632Z,23.23
2023-03-04T18:13:49.940Z,22.13
2023-03-04T18:16:23.596Z,26.40
2023-03-04T18:18:51.848Z,23.73
2023-03-04T18:21:20.049Z,22.17
2023-03-04T18:23:48.070Z,20.97
2023-03-04T18:26:16.170Z,19.80
2023-03-04T18:28:44.063Z,20.30
2023-03-04T18:31:12.173Z,21.20
2023-03-04T18:33:41.701Z,22.90
2023-03-04T18:36:10.610Z,24.23
2023-03-04T18:38:38.592Z,28.97
2023-03-04T18:41:07.656Z,26.23
2023-03-04T18:43:36.102Z,23.23
2023-03-04T18:46:05.243Z,19.80
2023-03-04T18:48:35.024Z,22.43
2023-03-04T18:51:04.509Z,25.20
2023-03-04T18:53:32.785Z,23.50
2023-03-04T18:56:03.850Z,21.63
2023-03-04T18:58:33.024Z,24.77
2023-03-04T19:01:01.677Z,24.60
2023-03-04T19:03:30.482Z,27.17
2023-03-04T19:05:58.561Z,25.43
2023-03-04T19:08:27.845Z,30.33
2023-03-04T19:10:55.901Z,24.30
2023-03-04T19:13:23.867Z,22.07
2023-03-04T19:15:52.055Z,23.53
2023-03-04T19:18:20.040Z,25.17
2023-03-04T19:20:47.918Z,26.97
2023-03-04T19:23:16.338Z,27.83
2023-03-04T19:25:45.668Z,26.00
2023-03-04T19:28:13.549Z,35.40
2023-03-04T19:30:42.154Z,24.90
2023-03-04T19:33:10.505Z,26.53
2023-03-04T19:35:41.602Z,28.33
2023-03-04T19:38:09.666Z,22.13
2023-03-04T19:40:40.497Z,20.53
2023-03-04T19:43:09.939Z,27.20
2023-03-04T19:45:37.869Z,26.50
2023-03-04T19:48:06.443Z,21.97
2023-03-04T19:50:34.611Z,25.00
2023-03-04T19:53:02.599Z,24.97
2023-03-04T19:55:31.075Z,26.83
2023-03-04T19:57:59.042Z,23.30
2023-03-04T20:00:28.475Z,25.33
2023-03-04T20:02:59.218Z,22.93
2023-03-04T20:05:27.128Z,25.60
2023-03-04T20:07:55.114Z,48.80
2023-03-04T20:10:22.992Z,26.30
2023-03-04T20:12:52.925Z,21.43
2023-03-04T20:15:20.953Z,25.00
2023-03-04T20:17:50.306Z,21.57
2023-03-04T20:20:18.517Z,19.40
2023-03-04T20:22:46.450Z,23.70
2023-03-04T20:25:14.509Z,28.47
2023-03-04T20:27:42.383Z,23.83
2023-03-04T20:30:11.185Z,22.90
2023-03-04T20:32:39.126Z,20.90
2023-03-04T20:35:14.071Z,21.10
2023-03-04T20:37:42.203Z,24.67
2023-03-04T20:40:10.822Z,21.33
2023-03-04T20:42:38.876Z,24.00
2023-03-04T20:45:07.333Z,23.70
2023-03-04T20:47:35.991Z,24.67
2023-03-04T20:50:06.118Z,24.97
2023-03-04T20:52:35.487Z,26.13
2023-03-04T20:55:03.455Z,28.47
2023-03-04T20:57:31.605Z,26.40
2023-03-04T20:59:59.538Z,29.60
2023-03-04T21:02:27.540Z,25.30
2023-03-04T21:04:55.932Z,28.50
2023-03-04T21:07:26.418Z,27.23
2023-03-04T21:09:55.854Z,24.20
2023-03-04T21:12:23.914Z,26.43
2023-03-04T21:14:51.969Z,26.23
2023-03-04T21:17:19.991Z,24.90
2023-03-04T21:19:47.927Z,26.70
2023-03-04T21:22:16.795Z,30.77
2023-03-04T21:24:45.406Z,29.90
2023-03-04T21:27:16.842Z,30.53
2023-03-04T21:29:44.940Z,32.43
2023-03-04T21:32:23.848Z,30.07
2023-03-04T21:34:53.576Z,31.90
2023-03-04T21:37:21.660Z,30.80
2023-03-04T21:39:49.553Z,32.80
2023-03-04T21:42:18.903Z,32.10
2023-03-04T21:44:51.274Z,32.53
2023-03-04T21:47:19.725Z,28.20
2023-03-04T21:49:47.729Z,33.50
2023-03-04T21:52:15.754Z,37.73
2023-03-04T21:54:43.735Z,37.03
2023-03-04T21:57:11.668Z,35.60
2023-03-04T21:59:41.364Z,32.93
2023-03-04T22:02:15.091Z,33.97
2023-03-04T22:04:42.995Z,35.00
2023-03-04T22:07:11.097Z,33.57
2023-03-04T22:09:39.676Z,38.47
2023-03-04T22:12:07.939Z,36.87
2023-03-04T22:14:35.961Z,36.67
2023-03-04T22:17:05.404Z,41.43
2023-03-04T22:19:33.658Z,38.10
2023-03-04T22:22:01.581Z,38.40
2023-03-04T22:24:29.645Z,45.33
2023-03-04T22:26:59.997Z,35.83
2023-03-04T22:29:27.999Z,45.30
2023-03-04T22:31:57.689Z,40.43
2023-03-04T22:34:27.176Z,38.90
2023-03-04T22:36:57.574Z,36.23
2023-03-04T22:39:25.517Z,43.90
2023-03-04T22:41:55.519Z,38.03
2023-03-04T22:44:25.969Z,35.93
2023-03-04T22:46:54.021Z,46.40
2023-03-04T22:49:21.968Z,38.70
2023-03-04T22:51:51.260Z,45.80
2023-03-04T22:54:19.880Z,40.57
2023-03-04T22:56:47.807Z,39.80
2023-03-04T22:59:15.733Z,43.73
2023-03-04T23:01:43.639Z,43.90
2023-03-04T23:04:11.983Z,42.90
2023-03-04T23:06:39.941Z,40.73
2023-03-04T23:09:09.331Z,40.67
2023-03-04T23:11:37.261Z,39.87
2023-03-04T23:14:07.360Z,38.70
2023-03-04T23:16:37.508Z,42.17
2023-03-04T23:19:05.700Z,43.67
2023-03-04T23:21:34.137Z,36.77
2023-03-04T23:24:03.231Z,40.53
2023-03-04T23:26:33.634Z,41.63
2023-03-04T23:29:03.106Z,43.93
2023-03-04T23:31:31.449Z,41.63
2023-03-04T23:33:59.616Z,37.47
2023-03-04T23:36:28.884Z,38.13
2023-03-04T23:38:56.808Z,40.97
2023-03-04T23:41:25.984Z,43.10
2023-03-04T23:43:55.791Z,40.20
2023-03-04T23:46:24.233Z,41.57
2023-03-04T23:48:52.326Z,38.47
2023-03-04T23:51:21.254Z,37.93
2023-03-04T23:53:49.437Z,38.97
2023-03-04T23:56:18.593Z,39.03
2023-03-04T23:58:47.064Z,40.13
